createdAt,value
2019-01-29T00:00:30.924Z,2.50
2019-01-29T00:02:59.426Z,2.50
2019-01-29T00:05:27.916Z,2.60
2019-01-29T00:07:56.318Z,2.50
2019-01-29T00:10:24.771Z,2.60
2019-01-29T00:12:53.182Z,2.60
2019-01-29T00:15:22.646Z,2.50
2019-01-29T00:17:51.543Z,2.40
2019-01-29T00:20:20.094Z,2.40
2019-01-29T00:22:48.477Z,2.40
2019-01-29T00:25:16.991Z,2.40
2019-01-29T00:27:45.568Z,2.40
2019-01-29T00:30:15.373Z,2.30
2019-01-29T00:32:43.932Z,2.40
2019-01-29T00:35:12.488Z,2.40
2019-01-29T00:37:41.052Z,2.40
2019-01-29T00:40:15.006Z,2.40
2019-01-29T00:42:43.461Z,2.50
2019-01-29T00:45:16.669Z,2.40
2019-01-29T00:47:45.084Z,2.50
2019-01-29T00:50:15.433Z,2.50
2019-01-29T00:52:43.912Z,2.50
2019-01-29T00:55:14.574Z,2.50
2019-01-29T00:57:43.141Z,2.50
2019-01-29T01:00:14.850Z,2.50
2019-01-29T01:02:43.556Z,2.40
2019-01-29T01:05:12.173Z,2.40
2019-01-29T01:07:40.613Z,2.30
2019-01-29T01:10:11.761Z,2.30
2019-01-29T01:12:40.168Z,2.30
2019-01-29T01:15:11.008Z,2.30
2019-01-29T01:17:39.464Z,2.20
2019-01-29T01:20:11.262Z,2.30
2019-01-29T01:22:39.688Z,2.20
2019-01-29T01:25:09.325Z,2.20
2019-01-29T01:27:37.732Z,2.20
2019-01-29T01:30:09.577Z,2.10
2019-01-29T01:32:37.987Z,2.00
2019-01-29T01:35:07.045Z,1.90
2019-01-29T01:37:35.569Z,1.90
2019-01-29T01:40:07.086Z,1.80
2019-01-29T01:42:35.501Z,1.80
2019-01-29T01:45:05.505Z,1.70
2019-01-29T01:47:34.196Z,1.70
2019-01-29T01:50:02.598Z,1.70
2019-01-29T01:52:30.989Z,1.70
2019-01-29T01:54:59.553Z,1.60
2019-01-29T01:57:28.025Z,1.60
2019-01-29T01:59:56.445Z,1.60
2019-01-29T02:02:24.865Z,1.60
2019-01-29T02:04:53.329Z,1.60
2019-01-29T02:07:21.735Z,1.60
2019-01-29T02:09:50.198Z,1.70
2019-01-29T02:12:18.641Z,1.70
2019-01-29T02:14:47.044Z,1.70
2019-01-29T02:17:15.478Z,1.70
2019-01-29T02:19:43.878Z,1.70
2019-01-29T02:22:12.313Z,1.80
2019-01-29T02:24:40.708Z,1.80
2019-01-29T02:27:09.124Z,1.80
2019-01-29T02:29:37.565Z,1.80
2019-01-29T02:32:05.937Z,1.70
2019-01-29T02:34:34.352Z,1.70
2019-01-29T02:37:02.744Z,1.70
2019-01-29T02:39:31.156Z,1.60
2019-01-29T02:41:59.586Z,1.60
2019-01-29T02:44:28.002Z,1.60
2019-01-29T02:46:56.389Z,1.70
2019-01-29T02:49:24.797Z,1.60
2019-01-29T02:51:53.224Z,1.70
2019-01-29T02:54:21.614Z,1.60
2019-01-29T02:56:50.013Z,1.60
2019-01-29T02:59:18.426Z,1.60
2019-01-29T03:01:46.830Z,1.70
2019-01-29T03:04:15.283Z,1.70
2019-01-29T03:06:43.772Z,1.70
2019-01-29T03:09:12.250Z,1.70
2019-01-29T03:11:40.753Z,1.70
2019-01-29T03:14:09.165Z,1.80
2019-01-29T03:16:37.571Z,1.70
2019-01-29T03:19:06.024Z,1.70
2019-01-29T03:21:34.456Z,1.70
2019-01-29T03:24:02.890Z,1.70
2019-01-29T03:26:31.277Z,1.70
2019-01-29T03:28:59.699Z,1.70
2019-01-29T03:31:28.129Z,1.60
2019-01-29T03:33:56.974Z,1.60
2019-01-29T03:36:25.398Z,1.50
2019-01-29T03:38:53.980Z,1.50
2019-01-29T03:41:22.376Z,1.50
2019-01-29T03:43:50.806Z,1.50
2019-01-29T03:46:19.298Z,1.50
2019-01-29T03:48:47.751Z,1.50
2019-01-29T03:51:16.200Z,1.50
2019-01-29T03:53:44.625Z,1.50
2019-01-29T03:56:13.061Z,1.50
2019-01-29T03:58:41.699Z,1.50
2019-01-29T04:01:10.123Z,1.50
2019-01-29T04:03:38.524Z,1.60
2019-01-29T04:06:06.990Z,1.60
2019-01-29T04:08:35.388Z,1.60
2019-01-29T04:11:03.934Z,1.70
2019-01-29T04:13:32.787Z,1.70
2019-01-29T04:16:01.198Z,1.70
2019-01-29T04:18:29.617Z,1.70
2019-01-29T04:20:58.012Z,1.70
2019-01-29T04:23:26.441Z,1.70
2019-01-29T04:25:55.329Z,1.70
2019-01-29T04:28:23.788Z,1.60
2019-01-29T04:30:52.193Z,1.70
2019-01-29T04:33:20.585Z,1.70
2019-01-29T04:35:49.010Z,1.70
2019-01-29T04:38:17.693Z,1.80
2019-01-29T04:40:46.094Z,1.80
2019-01-29T04:43:14.505Z,1.80
2019-01-29T04:45:42.994Z,1.90
2019-01-29T04:48:11.392Z,1.90
2019-01-29T04:50:39.809Z,1.90
2019-01-29T04:53:08.269Z,1.90
2019-01-29T04:55:36.737Z,1.90
2019-01-29T04:58:05.147Z,1.90
2019-01-29T05:00:33.595Z,1.90
2019-01-29T05:03:01.992Z,1.90
2019-01-29T05:05:30.410Z,1.90
2019-01-29T05:07:59.055Z,1.80
2019-01-29T05:10:27.713Z,1.80
2019-01-29T05:12:56.129Z,1.80
2019-01-29T05:15:24.551Z,1.80
2019-01-29T05:17:52.963Z,1.80
2019-01-29T05:20:22.199Z,1.80
2019-01-29T05:22:50.669Z,1.80
2019-01-29T05:25:19.316Z,1.90
2019-01-29T05:27:47.925Z,1.80
2019-01-29T05:30:20.663Z,1.90
2019-01-29T05:32:49.482Z,1.80
2019-01-29T05:35:17.993Z,1.70
2019-01-29T05:37:46.407Z,1.70
2019-01-29T05:40:17.434Z,1.70
2019-01-29T05:42:46.580Z,1.80
2019-01-29T05:45:17.125Z,1.70
2019-01-29T05:47:45.540Z,1.70
2019-01-29T05:50:15.529Z,1.70
2019-01-29T05:52:43.993Z,1.70
2019-01-29T05:55:14.151Z,1.70
2019-01-29T05:57:42.613Z,1.70
2019-01-29T06:00:17.322Z,1.70
2019-01-29T06:02:45.821Z,1.80
2019-01-29T06:05:14.686Z,1.70
2019-01-29T06:07:45.323Z,1.70
2019-01-29T06:10:15.669Z,1.80
2019-01-29T06:12:44.182Z,1.80
2019-01-29T06:15:20.821Z,1.80
2019-01-29T06:17:49.428Z,1.80
2019-01-29T06:20:23.936Z,1.90
2019-01-29T06:22:52.616Z,1.90
2019-01-29T06:25:21.407Z,1.90
2019-01-29T06:27:49.994Z,1.90
2019-01-29T06:30:20.588Z,1.90
2019-01-29T06:32:49.299Z,2.00
2019-01-29T06:35:20.412Z,1.90
2019-01-29T06:37:49.165Z,2.00
2019-01-29T06:40:20.294Z,2.00
2019-01-29T06:42:48.855Z,2.10
2019-01-29T06:45:19.207Z,2.10
2019-01-29T06:47:47.747Z,2.10
2019-01-29T06:50:18.362Z,2.10
2019-01-29T06:52:46.845Z,2.10
2019-01-29T06:55:17.701Z,2.10
2019-01-29T06:57:54.460Z,2.20
2019-01-29T07:00:19.853Z,2.20
2019-01-29T07:02:48.576Z,2.20
2019-01-29T07:05:17.095Z,2.20
2019-01-29T07:07:45.612Z,2.20
2019-01-29T07:10:16.613Z,2.20
2019-01-29T07:12:45.162Z,2.10
2019-01-29T07:15:45.123Z,2.20
2019-01-29T07:18:18.202Z,2.20
2019-01-29T07:20:46.677Z,2.10
2019-01-29T07:23:15.232Z,2.10
2019-01-29T07:25:43.749Z,2.20
2019-01-29T07:28:13.375Z,2.10
2019-01-29T07:30:41.951Z,2.10
2019-01-29T07:33:11.842Z,2.10
2019-01-29T07:35:40.261Z,2.20
2019-01-29T07:38:09.108Z,2.20
2019-01-29T07:40:37.708Z,2.20
2019-01-29T07:43:06.295Z,2.10
2019-01-29T07:45:34.900Z,2.10
2019-01-29T07:48:03.375Z,2.10
2019-01-29T07:50:31.864Z,2.10
2019-01-29T07:53:00.284Z,2.20
2019-01-29T07:55:28.768Z,2.20
2019-01-29T07:57:57.222Z,2.20
2019-01-29T08:00:25.734Z,2.30
2019-01-29T08:02:54.140Z,2.30
2019-01-29T08:05:22.645Z,2.30
2019-01-29T08:07:51.188Z,2.30
2019-01-29T08:10:19.838Z,2.40
2019-01-29T08:12:51.215Z,2.40
2019-01-29T08:15:21.795Z,2.50
2019-01-29T08:17:50.954Z,2.50
2019-01-29T08:20:19.511Z,2.60
2019-01-29T08:22:47.921Z,2.60
2019-01-29T08:25:16.979Z,2.60
2019-01-29T08:27:45.388Z,2.70
2019-01-29T08:30:18.332Z,2.80
2019-01-29T08:32:46.856Z,2.80
2019-01-29T08:35:17.039Z,2.80
2019-01-29T08:37:45.576Z,2.90
2019-01-29T08:40:17.824Z,3.10
2019-01-29T08:42:46.609Z,3.10
2019-01-29T08:45:17.001Z,3.20
2019-01-29T08:47:45.505Z,3.10
2019-01-29T08:50:19.596Z,3.10
2019-01-29T08:52:48.008Z,3.20
2019-01-29T08:55:16.501Z,3.20
2019-01-29T08:57:44.909Z,3.20
2019-01-29T09:00:18.570Z,3.30
2019-01-29T09:02:47.950Z,3.40
2019-01-29T09:05:16.805Z,3.50
2019-01-29T09:07:45.329Z,3.60
2019-01-29T09:10:17.379Z,3.70
2019-01-29T09:12:45.873Z,3.80
2019-01-29T09:15:16.769Z,3.90
2019-01-29T09:17:45.604Z,3.80
2019-01-29T09:20:16.863Z,3.90
2019-01-29T09:22:45.309Z,3.80
2019-01-29T09:25:20.915Z,3.80
2019-01-29T09:27:45.295Z,3.90
2019-01-29T09:30:18.533Z,4.00
2019-01-29T09:32:49.935Z,4.10
2019-01-29T09:35:18.386Z,4.20
2019-01-29T09:37:46.875Z,4.20
2019-01-29T09:40:23.529Z,4.30
2019-01-29T09:42:52.064Z,4.40
2019-01-29T09:45:20.951Z,4.40
2019-01-29T09:47:49.585Z,4.30
2019-01-29T09:50:22.638Z,4.30
2019-01-29T09:52:53.027Z,4.50
2019-01-29T09:55:28.880Z,4.50
2019-01-29T09:57:53.154Z,4.60
2019-01-29T10:00:30.253Z,4.70
2019-01-29T10:02:58.841Z,4.70
2019-01-29T10:05:27.511Z,4.60
2019-01-29T10:07:56.405Z,4.60
2019-01-29T10:10:25.043Z,4.60
2019-01-29T10:12:53.625Z,4.70
2019-01-29T10:15:27.456Z,4.70
2019-01-29T10:17:55.947Z,4.70
2019-01-29T10:20:24.933Z,4.60
2019-01-29T10:22:53.384Z,4.50
2019-01-29T10:25:23.773Z,4.60
2019-01-29T10:27:52.253Z,4.60
2019-01-29T10:30:25.549Z,4.60
2019-01-29T10:32:55.067Z,4.50
2019-01-29T10:35:26.209Z,4.50
2019-01-29T10:37:54.650Z,4.50
2019-01-29T10:40:25.717Z,4.70
2019-01-29T10:42:55.634Z,4.70
2019-01-29T10:45:25.600Z,4.90
2019-01-29T10:47:54.032Z,5.00
2019-01-29T10:50:24.960Z,5.00
2019-01-29T10:52:54.008Z,4.90
2019-01-29T10:55:22.698Z,4.90
2019-01-29T10:57:51.290Z,4.90
2019-01-29T11:00:38.118Z,4.90
2019-01-29T11:03:07.519Z,4.90
2019-01-29T11:05:36.011Z,5.00
2019-01-29T11:08:04.974Z,5.10
2019-01-29T11:10:33.396Z,5.00
2019-01-29T11:13:01.915Z,5.00
2019-01-29T11:15:37.186Z,5.10
2019-01-29T11:18:08.725Z,5.00
2019-01-29T11:20:37.290Z,4.90
2019-01-29T11:23:05.796Z,4.90
2019-01-29T11:25:34.281Z,5.00
2019-01-29T11:28:03.975Z,5.10
2019-01-29T11:30:33.215Z,5.20
2019-01-29T11:33:01.713Z,5.10
2019-01-29T11:35:30.199Z,5.30
2019-01-29T11:37:59.319Z,5.30
2019-01-29T11:40:30.729Z,5.50
2019-01-29T11:42:59.354Z,5.60
2019-01-29T11:45:36.700Z,5.50
2019-01-29T11:48:05.590Z,5.50
2019-01-29T11:50:34.454Z,5.40
2019-01-29T11:53:02.993Z,5.30
2019-01-29T11:55:31.457Z,5.30
2019-01-29T11:58:00.049Z,5.40
2019-01-29T12:00:35.461Z,5.40
2019-01-29T12:03:04.364Z,5.30
2019-01-29T12:05:32.911Z,5.30
2019-01-29T12:08:01.396Z,5.30
2019-01-29T12:10:29.933Z,5.20
2019-01-29T12:12:58.355Z,5.20
2019-01-29T12:15:26.949Z,5.20
2019-01-29T12:17:55.352Z,5.20
2019-01-29T12:20:24.105Z,5.30
2019-01-29T12:22:52.615Z,5.30
2019-01-29T12:25:21.216Z,5.20
2019-01-29T12:27:49.996Z,5.20
2019-01-29T12:30:29.206Z,5.20
2019-01-29T12:32:59.755Z,5.10
2019-01-29T12:35:28.519Z,5.10
2019-01-29T12:37:57.025Z,5.10
2019-01-29T12:40:25.498Z,4.90
2019-01-29T12:42:54.509Z,4.80
2019-01-29T12:45:23.203Z,4.90
2019-01-29T12:47:51.676Z,4.80
2019-01-29T12:50:23.124Z,4.90
2019-01-29T12:52:56.220Z,4.90
2019-01-29T12:55:24.733Z,4.90
2019-01-29T12:57:53.172Z,4.90
2019-01-29T13:00:23.238Z,4.90
2019-01-29T13:02:51.660Z,4.90
2019-01-29T13:05:20.460Z,4.90
2019-01-29T13:07:48.885Z,4.80
2019-01-29T13:10:22.506Z,4.80
2019-01-29T13:12:51.326Z,4.80
2019-01-29T13:15:25.672Z,4.80
2019-01-29T13:17:54.068Z,4.80
2019-01-29T13:20:22.603Z,4.90
2019-01-29T13:22:51.101Z,5.00
2019-01-29T13:25:19.608Z,5.00
2019-01-29T13:27:48.009Z,5.10
2019-01-29T13:30:19.548Z,5.20
2019-01-29T13:32:47.977Z,5.20
2019-01-29T13:35:17.602Z,5.10
2019-01-29T13:37:46.086Z,5.00
2019-01-29T13:40:15.281Z,5.00
2019-01-29T13:42:44.073Z,4.90
2019-01-29T13:45:14.795Z,4.90
2019-01-29T13:47:43.397Z,4.90
2019-01-29T13:50:20.555Z,4.70
2019-01-29T13:52:49.131Z,4.60
2019-01-29T13:55:17.971Z,4.60
2019-01-29T13:57:46.470Z,4.60
2019-01-29T14:00:29.886Z,4.60
2019-01-29T14:02:58.385Z,4.60
2019-01-29T14:05:26.880Z,4.60
2019-01-29T14:07:56.405Z,4.70
2019-01-29T14:10:24.948Z,4.60
2019-01-29T14:12:58.278Z,4.70
2019-01-29T14:15:33.178Z,4.70
2019-01-29T14:18:01.595Z,4.80
2019-01-29T14:20:30.443Z,4.70
2019-01-29T14:22:59.166Z,4.70
2019-01-29T14:25:27.693Z,4.60
2019-01-29T14:27:56.209Z,4.70
2019-01-29T14:30:27.145Z,4.60
2019-01-29T14:32:55.648Z,4.70
2019-01-29T14:35:24.157Z,4.60
2019-01-29T14:38:01.785Z,4.70
2019-01-29T14:40:31.119Z,4.70
2019-01-29T14:42:59.533Z,4.70
2019-01-29T14:45:32.483Z,4.50
2019-01-29T14:48:00.897Z,4.30
2019-01-29T14:50:29.929Z,4.30
2019-01-29T14:52:58.542Z,4.30
2019-01-29T14:55:27.735Z,4.30
2019-01-29T14:57:56.361Z,4.10
2019-01-29T15:00:32.903Z,4.00
2019-01-29T15:03:01.442Z,3.90
2019-01-29T15:05:30.037Z,3.90
2019-01-29T15:07:58.934Z,3.90
2019-01-29T15:10:28.941Z,3.80
2019-01-29T15:12:57.473Z,3.70
2019-01-29T15:15:35.834Z,3.70
2019-01-29T15:18:15.487Z,3.70
2019-01-29T15:20:43.969Z,3.60
2019-01-29T15:23:12.639Z,3.50
2019-01-29T15:25:41.108Z,3.40
2019-01-29T15:28:09.690Z,3.40
2019-01-29T15:30:38.176Z,3.50
2019-01-29T15:33:06.761Z,3.40
2019-01-29T15:35:35.272Z,3.40
2019-01-29T15:38:04.371Z,3.40
2019-01-29T15:40:32.847Z,3.30
2019-01-29T15:43:01.345Z,3.40
2019-01-29T15:45:30.599Z,3.30
2019-01-29T15:47:59.033Z,3.30
2019-01-29T15:50:32.966Z,3.30
2019-01-29T15:53:01.624Z,3.20
2019-01-29T15:55:30.106Z,3.20
2019-01-29T15:57:58.637Z,3.20
2019-01-29T16:00:34.935Z,3.10
2019-01-29T16:03:03.961Z,3.00
2019-01-29T16:05:42.828Z,3.00
2019-01-29T16:08:13.624Z,2.90
2019-01-29T16:10:43.912Z,2.80
2019-01-29T16:13:12.379Z,2.80
2019-01-29T16:15:41.770Z,2.90
2019-01-29T16:18:11.171Z,2.80
2019-01-29T16:20:39.853Z,2.80
2019-01-29T16:23:08.421Z,2.70
2019-01-29T16:25:38.663Z,2.70
2019-01-29T16:28:07.236Z,2.60
2019-01-29T16:30:37.169Z,2.60
2019-01-29T16:33:06.048Z,2.60
2019-01-29T16:35:36.265Z,2.60
2019-01-29T16:38:06.344Z,2.50
2019-01-29T16:40:37.620Z,2.40
2019-01-29T16:43:06.190Z,2.40
2019-01-29T16:45:35.810Z,2.30
2019-01-29T16:48:06.397Z,2.40
2019-01-29T16:50:37.027Z,2.40
2019-01-29T16:53:07.238Z,2.40
2019-01-29T16:55:36.105Z,2.30
2019-01-29T16:58:05.895Z,2.20
2019-01-29T17:00:36.365Z,2.30
2019-01-29T17:03:05.253Z,2.20
2019-01-29T17:05:34.483Z,2.10
2019-01-29T17:08:05.334Z,2.10
2019-01-29T17:10:34.548Z,2.00
2019-01-29T17:13:03.097Z,2.00
2019-01-29T17:15:33.881Z,1.90
2019-01-29T17:18:02.886Z,1.80
2019-01-29T17:20:36.987Z,1.80
2019-01-29T17:23:06.905Z,1.80
2019-01-29T17:25:35.444Z,1.80
2019-01-29T17:28:04.005Z,1.80
2019-01-29T17:30:37.991Z,1.70
2019-01-29T17:33:07.603Z,1.70
2019-01-29T17:35:37.553Z,1.60
2019-01-29T17:38:06.201Z,1.60
2019-01-29T17:40:34.753Z,1.60
2019-01-29T17:43:03.238Z,1.50
2019-01-29T17:45:34.352Z,1.40
2019-01-29T17:48:03.132Z,1.30
2019-01-29T17:50:40.149Z,1.20
2019-01-29T17:53:08.765Z,1.10
2019-01-29T17:55:38.817Z,1.10
2019-01-29T17:58:08.336Z,1.10
2019-01-29T18:00:38.715Z,1.00
2019-01-29T18:03:07.794Z,1.00
2019-01-29T18:05:36.412Z,1.00
2019-01-29T18:08:05.615Z,1.00
2019-01-29T18:10:34.471Z,1.00
2019-01-29T18:13:03.179Z,1.00
2019-01-29T18:15:32.596Z,1.00
2019-01-29T18:18:01.299Z,1.00
2019-01-29T18:20:30.164Z,0.90
2019-01-29T18:22:58.798Z,0.90
2019-01-29T18:25:27.587Z,0.90
2019-01-29T18:28:01.256Z,0.80
2019-01-29T18:30:34.337Z,0.70
2019-01-29T18:33:03.184Z,0.70
2019-01-29T18:35:31.960Z,0.60
2019-01-29T18:38:01.371Z,0.60
2019-01-29T18:40:33.175Z,0.60
2019-01-29T18:43:02.856Z,0.50
2019-01-29T18:45:31.495Z,0.50
2019-01-29T18:48:00.442Z,0.50
2019-01-29T18:50:29.218Z,0.50
2019-01-29T18:52:57.904Z,0.50
2019-01-29T18:55:26.529Z,0.50
2019-01-29T18:57:55.374Z,0.40
2019-01-29T19:00:27.719Z,0.40
2019-01-29T19:02:56.846Z,0.40
2019-01-29T19:05:26.889Z,0.30
2019-01-29T19:07:55.607Z,0.30
2019-01-29T19:10:24.650Z,0.30
2019-01-29T19:12:53.363Z,0.30
2019-01-29T19:15:24.649Z,0.30
2019-01-29T19:17:53.809Z,0.30
2019-01-29T19:20:24.911Z,0.30
2019-01-29T19:22:54.108Z,0.30
2019-01-29T19:25:23.225Z,0.30
2019-01-29T19:27:52.807Z,0.30
2019-01-29T19:30:27.230Z,0.30
2019-01-29T19:32:56.747Z,0.30
2019-01-29T19:35:26.223Z,0.30
2019-01-29T19:37:55.995Z,0.20
2019-01-29T19:40:25.435Z,0.20
2019-01-29T19:42:54.668Z,0.20
2019-01-29T19:45:26.900Z,0.20
2019-01-29T19:47:56.445Z,0.20
2019-01-29T19:50:30.602Z,0.20
2019-01-29T19:52:59.758Z,0.10
2019-01-29T19:55:29.129Z,0.10
2019-01-29T19:58:08.793Z,0.10
2019-01-29T20:00:39.208Z,0.10
2019-01-29T20:03:07.931Z,0.00
2019-01-29T20:05:37.284Z,0.00
2019-01-29T20:08:06.191Z,0.00
2019-01-29T20:10:35.586Z,0.00
2019-01-29T20:13:05.247Z,0.00
2019-01-29T20:15:34.691Z,0.00
2019-01-29T20:18:04.051Z,0.00
2019-01-29T20:20:35.752Z,0.00
2019-01-29T20:23:08.121Z,-0.10
2019-01-29T20:25:35.636Z,-0.10
2019-01-29T20:28:05.720Z,-0.10
2019-01-29T20:30:36.635Z,-0.10
2019-01-29T20:33:05.530Z,-0.10
2019-01-29T20:35:34.149Z,-0.10
2019-01-29T20:38:02.542Z,-0.10
2019-01-29T20:40:31.533Z,-0.10
2019-01-29T20:43:00.018Z,-0.10
2019-01-29T20:45:28.520Z,-0.20
2019-01-29T20:47:57.030Z,-0.20
2019-01-29T20:50:30.826Z,-0.20
2019-01-29T20:52:59.361Z,-0.20
2019-01-29T20:55:27.869Z,-0.20
2019-01-29T20:57:56.639Z,-0.30
2019-01-29T21:00:33.895Z,-0.30
2019-01-29T21:03:02.293Z,-0.30
2019-01-29T21:05:30.806Z,-0.30
2019-01-29T21:08:00.601Z,-0.30
2019-01-29T21:10:29.391Z,-0.30
2019-01-29T21:12:57.847Z,-0.40
2019-01-29T21:15:37.671Z,-0.40
2019-01-29T21:17:57.978Z,-0.30
2019-01-29T21:20:29.112Z,-0.30
2019-01-29T21:22:58.202Z,-0.30
2019-01-29T21:25:26.783Z,-0.30
2019-01-29T21:27:55.255Z,-0.30
2019-01-29T21:30:29.351Z,-0.40
2019-01-29T21:32:57.842Z,-0.40
2019-01-29T21:35:26.479Z,-0.40
2019-01-29T21:37:55.074Z,-0.30
2019-01-29T21:40:24.786Z,-0.40
2019-01-29T21:42:53.639Z,-0.40
2019-01-29T21:45:23.609Z,-0.40
2019-01-29T21:47:54.266Z,-0.40
2019-01-29T21:50:25.342Z,-0.40
2019-01-29T21:52:53.939Z,-0.40
2019-01-29T21:55:22.599Z,-0.40
2019-01-29T21:57:51.051Z,-0.40
2019-01-29T22:00:28.498Z,-0.40
2019-01-29T22:02:57.083Z,-0.40
2019-01-29T22:05:25.560Z,-0.40
2019-01-29T22:07:54.088Z,-0.40
2019-01-29T22:10:22.511Z,-0.50
2019-01-29T22:12:50.989Z,-0.50
2019-01-29T22:15:21.609Z,-0.50
2019-01-29T22:17:50.284Z,-0.50
2019-01-29T22:20:20.588Z,-0.50
2019-01-29T22:22:49.183Z,-0.50
2019-01-29T22:25:22.989Z,-0.60
2019-01-29T22:27:51.531Z,-0.60
2019-01-29T22:30:28.194Z,-0.60
2019-01-29T22:32:56.684Z,-0.60
2019-01-29T22:35:25.256Z,-0.60
2019-01-29T22:37:53.812Z,-0.70
2019-01-29T22:40:24.326Z,-0.60
2019-01-29T22:42:52.856Z,-0.60
2019-01-29T22:45:21.892Z,-0.70
2019-01-29T22:47:50.392Z,-0.70
2019-01-29T22:50:24.134Z,-0.70
2019-01-29T22:52:52.716Z,-0.70
2019-01-29T22:55:21.264Z,-0.70
2019-01-29T22:57:49.773Z,-0.70
2019-01-29T23:00:26.214Z,-0.80
2019-01-29T23:02:54.618Z,-0.80
2019-01-29T23:05:23.113Z,-0.80
2019-01-29T23:07:51.626Z,-0.90
2019-01-29T23:10:21.878Z,-0.80
2019-01-29T23:12:50.319Z,-0.80
2019-01-29T23:15:19.969Z,-0.80
2019-01-29T23:17:48.380Z,-0.90
2019-01-29T23:20:17.829Z,-0.90
2019-01-29T23:22:46.269Z,-0.90
2019-01-29T23:25:14.697Z,-1.00
2019-01-29T23:27:43.216Z,-1.00
2019-01-29T23:30:20.436Z,-1.00
2019-01-29T23:32:48.933Z,-1.00
2019-01-29T23:35:17.382Z,-1.00
2019-01-29T23:37:45.944Z,-1.00
2019-01-29T23:40:17.049Z,-1.00
2019-01-29T23:42:45.442Z,-1.10
2019-01-29T23:45:17.545Z,-1.00
2019-01-29T23:47:46.026Z,-1.00
2019-01-29T23:50:15.981Z,-1.00
2019-01-29T23:52:44.613Z,-1.10
2019-01-29T23:55:13.483Z,-1.10
2019-01-29T23:57:41.900Z,-1.10
